sensor_id;sensor_type;location;lat;lon;timestamp;P1;durP1;ratioP1;P2;durP2;ratioP2
18879;SDS011;9572;52.378;13.404;2022-08-03T00:02:19;3.30;;;2.53;;
18879;SDS011;9572;52.378;13.404;2022-08-03T00:04:48;4.75;;;2.70;;
18879;SDS011;9572;52.378;13.404;2022-08-03T00:07:15;4.38;;;2.95;;
18879;SDS011;9572;52.378;13.404;2022-08-03T00:09:53;3.90;;;2.58;;
18879;SDS011;9572;52.378;13.404;2022-08-03T00:12:20;3.83;;;2.53;;
18879;SDS011;9572;52.378;13.404;2022-08-03T00:14:53;3.20;;;2.22;;
18879;SDS011;9572;52.378;13.404;2022-08-03T00:17:24;2.67;;;2.47;;
18879;SDS011;9572;52.378;13.404;2022-08-03T00:19:52;2.95;;;2.15;;
18879;SDS011;9572;52.378;13.404;2022-08-03T00:22:19;4.38;;;2.42;;
18879;SDS011;9572;52.378;13.404;2022-08-03T00:24:49;3.15;;;2.85;;
18879;SDS011;9572;52.378;13.404;2022-08-03T00:27:17;4.07;;;2.60;;
18879;SDS011;9572;52.378;13.404;2022-08-03T00:29:46;4.50;;;2.85;;
18879;SDS011;9572;52.378;13.404;2022-08-03T00:32:13;7.55;;;2.80;;
18879;SDS011;9572;52.378;13.404;2022-08-03T00:34:40;6.18;;;2.58;;
18879;SDS011;9572;52.378;13.404;2022-08-03T00:37:07;2.92;;;2.60;;
18879;SDS011;9572;52.378;13.404;2022-08-03T00:39:34;4.97;;;2.80;;
18879;SDS011;9572;52.378;13.404;2022-08-03T00:42:02;3.10;;;2.45;;
18879;SDS011;9572;52.378;13.404;2022-08-03T00:44:30;3.17;;;2.85;;
18879;SDS011;9572;52.378;13.404;2022-08-03T00:46:57;4.72;;;2.72;;
18879;SDS011;9572;52.378;13.404;2022-08-03T00:49:23;5.68;;;3.00;;
18879;SDS011;9572;52.378;13.404;2022-08-03T00:51:50;7.30;;;3.13;;
18879;SDS011;9572;52.378;13.404;2022-08-03T00:54:18;5.32;;;2.90;;
18879;SDS011;9572;52.378;13.404;2022-08-03T00:56:46;6.15;;;2.70;;
18879;SDS011;9572;52.378;13.404;2022-08-03T00:59:14;3.10;;;2.88;;
18879;SDS011;9572;52.378;13.404;2022-08-03T01:01:41;4.15;;;2.70;;
18879;SDS011;9572;52.378;13.404;2022-08-03T01:04:08;3.65;;;2.70;;
18879;SDS011;9572;52.378;13.404;2022-08-03T01:06:40;6.63;;;3.15;;
18879;SDS011;9572;52.378;13.404;2022-08-03T01:09:15;3.33;;;2.83;;
18879;SDS011;9572;52.378;13.404;2022-08-03T01:11:48;4.30;;;2.72;;
18879;SDS011;9572;52.378;13.404;2022-08-03T01:14:23;2.80;;;2.50;;
18879;SDS011;9572;52.378;13.404;2022-08-03T01:16:58;4.57;;;3.20;;
18879;SDS011;9572;52.378;13.404;2022-08-03T01:19:33;3.85;;;2.70;;
18879;SDS011;9572;52.378;13.404;2022-08-03T01:22:13;3.95;;;3.33;;
18879;SDS011;9572;52.378;13.404;2022-08-03T01:25:05;6.28;;;3.17;;
18879;SDS011;9572;52.378;13.404;2022-08-03T01:27:42;2.92;;;2.33;;
18879;SDS011;9572;52.378;13.404;2022-08-03T01:30:21;5.72;;;2.90;;
18879;SDS011;9572;52.378;13.404;2022-08-03T01:32:54;5.25;;;3.33;;
18879;SDS011;9572;52.378;13.404;2022-08-03T01:35:27;3.47;;;2.75;;
18879;SDS011;9572;52.378;13.404;2022-08-03T01:38:00;3.40;;;2.63;;
18879;SDS011;9572;52.378;13.404;2022-08-03T01:40:31;3.45;;;2.78;;
18879;SDS011;9572;52.378;13.404;2022-08-03T01:43:01;3.97;;;2.97;;
18879;SDS011;9572;52.378;13.404;2022-08-03T01:45:30;3.67;;;2.95;;
18879;SDS011;9572;52.378;13.404;2022-08-03T01:47:59;3.90;;;2.97;;
18879;SDS011;9572;52.378;13.404;2022-08-03T01:50:28;3.72;;;2.92;;
18879;SDS011;9572;52.378;13.404;2022-08-03T01:52:56;4.90;;;3.22;;
18879;SDS011;9572;52.378;13.404;2022-08-03T01:55:24;4.75;;;3.10;;
18879;SDS011;9572;52.378;13.404;2022-08-03T01:57:52;4.03;;;3.25;;
18879;SDS011;9572;52.378;13.404;2022-08-03T02:00:21;5.43;;;3.15;;
18879;SDS011;9572;52.378;13.404;2022-08-03T02:02:51;6.22;;;3.42;;
18879;SDS011;9572;52.378;13.404;2022-08-03T02:05:21;6.57;;;3.15;;
18879;SDS011;9572;52.378;13.404;2022-08-03T02:07:49;3.25;;;2.78;;
18879;SDS011;9572;52.378;13.404;2022-08-03T02:10:18;4.32;;;2.90;;
18879;SDS011;9572;52.378;13.404;2022-08-03T02:12:46;3.70;;;3.00;;
18879;SDS011;9572;52.378;13.404;2022-08-03T02:15:15;3.20;;;2.70;;
18879;SDS011;9572;52.378;13.404;2022-08-03T02:17:44;2.97;;;2.60;;
18879;SDS011;9572;52.378;13.404;2022-08-03T02:20:14;3.55;;;3.17;;
18879;SDS011;9572;52.378;13.404;2022-08-03T02:22:42;5.25;;;2.83;;
18879;SDS011;9572;52.378;13.404;2022-08-03T02:25:10;3.22;;;2.70;;
18879;SDS011;9572;52.378;13.404;2022-08-03T02:27:40;5.43;;;2.90;;
18879;SDS011;9572;52.378;13.404;2022-08-03T02:30:11;5.35;;;3.30;;
18879;SDS011;9572;52.378;13.404;2022-08-03T02:32:39;5.07;;;3.17;;
18879;SDS011;9572;52.378;13.404;2022-08-03T02:35:10;3.70;;;2.70;;
18879;SDS011;9572;52.378;13.404;2022-08-03T02:37:42;3.33;;;2.67;;
18879;SDS011;9572;52.378;13.404;2022-08-03T02:40:13;3.15;;;2.85;;
18879;SDS011;9572;52.378;13.404;2022-08-03T02:42:42;5.85;;;2.90;;
18879;SDS011;9572;52.378;13.404;2022-08-03T02:45:11;4.15;;;3.28;;
18879;SDS011;9572;52.378;13.404;2022-08-03T02:47:40;4.88;;;3.05;;
18879;SDS011;9572;52.378;13.404;2022-08-03T02:50:10;4.07;;;2.90;;
18879;SDS011;9572;52.378;13.404;2022-08-03T02:52:42;4.47;;;2.85;;
18879;SDS011;9572;52.378;13.404;2022-08-03T02:55:12;3.97;;;3.10;;
18879;SDS011;9572;52.378;13.404;2022-08-03T02:57:41;3.42;;;2.63;;
18879;SDS011;9572;52.378;13.404;2022-08-03T03:00:10;3.63;;;2.63;;
18879;SDS011;9572;52.378;13.404;2022-08-03T03:02:39;3.80;;;3.05;;
18879;SDS011;9572;52.378;13.404;2022-08-03T03:05:07;3.85;;;2.80;;
18879;SDS011;9572;52.378;13.404;2022-08-03T03:07:35;3.50;;;3.20;;
18879;SDS011;9572;52.378;13.404;2022-08-03T03:10:06;4.70;;;2.80;;
18879;SDS011;9572;52.378;13.404;2022-08-03T03:12:35;3.28;;;2.85;;
18879;SDS011;9572;52.378;13.404;2022-08-03T03:15:03;3.88;;;2.95;;
18879;SDS011;9572;52.378;13.404;2022-08-03T03:17:32;3.60;;;2.83;;
18879;SDS011;9572;52.378;13.404;2022-08-03T03:20:00;4.00;;;2.97;;
18879;SDS011;9572;52.378;13.404;2022-08-03T03:22:28;4.38;;;3.20;;
18879;SDS011;9572;52.378;13.404;2022-08-03T03:24:58;4.07;;;3.35;;
18879;SDS011;9572;52.378;13.404;2022-08-03T03:27:27;5.22;;;3.30;;
18879;SDS011;9572;52.378;13.404;2022-08-03T03:29:55;3.38;;;3.05;;
18879;SDS011;9572;52.378;13.404;2022-08-03T03:32:23;3.10;;;2.90;;
18879;SDS011;9572;52.378;13.404;2022-08-03T03:34:51;3.20;;;3.00;;
18879;SDS011;9572;52.378;13.404;2022-08-03T03:37:19;4.47;;;3.17;;
18879;SDS011;9572;52.378;13.404;2022-08-03T03:39:46;4.20;;;2.78;;
18879;SDS011;9572;52.378;13.404;2022-08-03T03:42:13;5.38;;;3.33;;
18879;SDS011;9572;52.378;13.404;2022-08-03T03:44:42;4.18;;;2.90;;
18879;SDS011;9572;52.378;13.404;2022-08-03T03:47:09;3.90;;;3.40;;
18879;SDS011;9572;52.378;13.404;2022-08-03T03:49:36;5.43;;;3.25;;
18879;SDS011;9572;52.378;13.404;2022-08-03T03:52:03;4.57;;;3.50;;
18879;SDS011;9572;52.378;13.404;2022-08-03T03:54:37;3.63;;;3.30;;
18879;SDS011;9572;52.378;13.404;2022-08-03T03:57:06;5.28;;;3.63;;
18879;SDS011;9572;52.378;13.404;2022-08-03T03:59:36;6.57;;;3.53;;
18879;SDS011;9572;52.378;13.404;2022-08-03T04:02:04;5.65;;;3.50;;
18879;SDS011;9572;52.378;13.404;2022-08-03T04:04:32;3.25;;;3.00;;
18879;SDS011;9572;52.378;13.404;2022-08-03T04:07:17;4.18;;;3.42;;
18879;SDS011;9572;52.378;13.404;2022-08-03T04:10:01;5.10;;;3.25;;
18879;SDS011;9572;52.378;13.404;2022-08-03T04:12:56;4.53;;;3.63;;
18879;SDS011;9572;52.378;13.404;2022-08-03T04:15:26;3.60;;;3.30;;
18879;SDS011;9572;52.378;13.404;2022-08-03T04:17:55;3.65;;;3.30;;
18879;SDS011;9572;52.378;13.404;2022-08-03T04:20:25;3.20;;;2.88;;
18879;SDS011;9572;52.378;13.404;2022-08-03T04:22:55;3.20;;;2.90;;
18879;SDS011;9572;52.378;13.404;2022-08-03T04:25:25;6.47;;;3.20;;
18879;SDS011;9572;52.378;13.404;2022-08-03T04:27:55;4.32;;;3.60;;
18879;SDS011;9572;52.378;13.404;2022-08-03T04:30:24;3.15;;;2.88;;
18879;SDS011;9572;52.378;13.404;2022-08-03T04:32:54;3.38;;;3.10;;
18879;SDS011;9572;52.378;13.404;2022-08-03T04:35:22;5.85;;;3.30;;
18879;SDS011;9572;52.378;13.404;2022-08-03T04:37:51;3.42;;;3.17;;
18879;SDS011;9572;52.378;13.404;2022-08-03T04:40:21;6.15;;;3.50;;
18879;SDS011;9572;52.378;13.404;2022-08-03T04:42:50;5.43;;;3.30;;
18879;SDS011;9572;52.378;13.404;2022-08-03T04:45:20;3.50;;;3.08;;
18879;SDS011;9572;52.378;13.404;2022-08-03T04:47:47;4.25;;;3.33;;
18879;SDS011;9572;52.378;13.404;2022-08-03T04:50:16;4.38;;;3.65;;
18879;SDS011;9572;52.378;13.404;2022-08-03T04:52:44;4.47;;;3.50;;
18879;SDS011;9572;52.378;13.404;2022-08-03T04:55:11;4.18;;;3.40;;
18879;SDS011;9572;52.378;13.404;2022-08-03T04:57:38;4.63;;;3.35;;
18879;SDS011;9572;52.378;13.404;2022-08-03T05:00:05;4.28;;;3.40;;
18879;SDS011;9572;52.378;13.404;2022-08-03T05:02:33;4.47;;;3.60;;
18879;SDS011;9572;52.378;13.404;2022-08-03T05:05:00;5.50;;;3.53;;
18879;SDS011;9572;52.378;13.404;2022-08-03T05:07:28;3.92;;;3.20;;
18879;SDS011;9572;52.378;13.404;2022-08-03T05:09:55;3.42;;;3.10;;
18879;SDS011;9572;52.378;13.404;2022-08-03T05:12:22;3.65;;;3.35;;
18879;SDS011;9572;52.378;13.404;2022-08-03T05:14:49;5.72;;;3.10;;
18879;SDS011;9572;52.378;13.404;2022-08-03T05:17:16;5.05;;;3.05;;
18879;SDS011;9572;52.378;13.404;2022-08-03T05:19:43;4.47;;;3.10;;
18879;SDS011;9572;52.378;13.404;2022-08-03T05:22:10;4.10;;;3.35;;
18879;SDS011;9572;52.378;13.404;2022-08-03T05:24:38;3.20;;;2.90;;
18879;SDS011;9572;52.378;13.404;2022-08-03T05:27:05;4.35;;;3.15;;
18879;SDS011;9572;52.378;13.404;2022-08-03T05:29:32;4.07;;;2.85;;
18879;SDS011;9572;52.378;13.404;2022-08-03T05:31:59;2.83;;;2.63;;
18879;SDS011;9572;52.378;13.404;2022-08-03T05:34:26;5.60;;;3.00;;
18879;SDS011;9572;52.378;13.404;2022-08-03T05:36:53;2.75;;;2.55;;
18879;SDS011;9572;52.378;13.404;2022-08-03T05:39:20;3.08;;;2.55;;
18879;SDS011;9572;52.378;13.404;2022-08-03T05:41:48;7.35;;;3.05;;
18879;SDS011;9572;52.378;13.404;2022-08-03T05:44:15;3.10;;;2.40;;
18879;SDS011;9572;52.378;13.404;2022-08-03T05:46:42;4.10;;;2.60;;
18879;SDS011;9572;52.378;13.404;2022-08-03T05:49:10;10.90;;;3.03;;
18879;SDS011;9572;52.378;13.404;2022-08-03T05:51:37;2.10;;;1.92;;
18879;SDS011;9572;52.378;13.404;2022-08-03T05:54:04;6.75;;;2.10;;
18879;SDS011;9572;52.378;13.404;2022-08-03T05:56:31;2.15;;;1.95;;
18879;SDS011;9572;52.378;13.404;2022-08-03T05:58:59;4.07;;;2.08;;
18879;SDS011;9572;52.378;13.404;2022-08-03T06:01:26;2.67;;;1.83;;
18879;SDS011;9572;52.378;13.404;2022-08-03T06:03:55;4.20;;;1.75;;
18879;SDS011;9572;52.378;13.404;2022-08-03T06:06:22;5.38;;;2.00;;
18879;SDS011;9572;52.378;13.404;2022-08-03T06:08:49;2.90;;;1.90;;
18879;SDS011;9572;52.378;13.404;2022-08-03T06:11:16;12.10;;;2.67;;
18879;SDS011;9572;52.378;13.404;2022-08-03T06:13:43;5.20;;;2.40;;
18879;SDS011;9572;52.378;13.404;2022-08-03T06:16:12;4.68;;;2.30;;
18879;SDS011;9572;52.378;13.404;2022-08-03T06:18:39;6.88;;;2.40;;
18879;SDS011;9572;52.378;13.404;2022-08-03T06:21:06;17.25;;;2.88;;
18879;SDS011;9572;52.378;13.404;2022-08-03T06:23:32;13.88;;;2.70;;
18879;SDS011;9572;52.378;13.404;2022-08-03T06:26:00;22.02;;;2.55;;
18879;SDS011;9572;52.378;13.404;2022-08-03T06:28:27;9.05;;;2.50;;
18879;SDS011;9572;52.378;13.404;2022-08-03T06:30:54;21.27;;;3.42;;
18879;SDS011;9572;52.378;13.404;2022-08-03T06:33:22;18.15;;;3.10;;
18879;SDS011;9572;52.378;13.404;2022-08-03T06:35:50;22.52;;;2.97;;
18879;SDS011;9572;52.378;13.404;2022-08-03T06:38:17;21.05;;;2.72;;
18879;SDS011;9572;52.378;13.404;2022-08-03T06:40:45;23.40;;;2.80;;
18879;SDS011;9572;52.378;13.404;2022-08-03T06:43:14;21.90;;;3.22;;
18879;SDS011;9572;52.378;13.404;2022-08-03T06:51:32;9.65;;;2.13;;
18879;SDS011;9572;52.378;13.404;2022-08-03T06:54:01;5.75;;;1.90;;
18879;SDS011;9572;52.378;13.404;2022-08-03T06:56:55;5.43;;;1.80;;
18879;SDS011;9572;52.378;13.404;2022-08-03T06:59:23;7.40;;;1.73;;
18879;SDS011;9572;52.378;13.404;2022-08-03T07:01:50;3.78;;;1.70;;
18879;SDS011;9572;52.378;13.404;2022-08-03T07:04:17;2.67;;;1.48;;
18879;SDS011;9572;52.378;13.404;2022-08-03T07:13:38;4.32;;;1.75;;
18879;SDS011;9572;52.378;13.404;2022-08-03T07:16:06;1.70;;;1.50;;
18879;SDS011;9572;52.378;13.404;2022-08-03T07:18:36;7.30;;;1.50;;
18879;SDS011;9572;52.378;13.404;2022-08-03T07:21:12;3.13;;;1.60;;
18879;SDS011;9572;52.378;13.404;2022-08-03T07:23:40;5.70;;;1.70;;
18879;SDS011;9572;52.378;13.404;2022-08-03T07:26:13;2.67;;;1.70;;
18879;SDS011;9572;52.378;13.404;2022-08-03T07:33:55;1.17;;;1.08;;
18879;SDS011;9572;52.378;13.404;2022-08-03T07:35:02;8.73;;;1.45;;
18879;SDS011;9572;52.378;13.404;2022-08-03T07:37:30;9.52;;;1.60;;
18879;SDS011;9572;52.378;13.404;2022-08-03T07:39:58;3.53;;;1.60;;
18879;SDS011;9572;52.378;13.404;2022-08-03T07:42:33;4.30;;;1.45;;
18879;SDS011;9572;52.378;13.404;2022-08-03T07:45:03;3.10;;;1.33;;
18879;SDS011;9572;52.378;13.404;2022-08-03T07:47:34;5.43;;;1.73;;
18879;SDS011;9572;52.378;13.404;2022-08-03T07:50:06;2.78;;;1.65;;
18879;SDS011;9572;52.378;13.404;2022-08-03T07:52:35;7.18;;;1.80;;
18879;SDS011;9572;52.378;13.404;2022-08-03T07:55:24;3.33;;;1.40;;
18879;SDS011;9572;52.378;13.404;2022-08-03T07:58:30;4.07;;;1.40;;
18879;SDS011;9572;52.378;13.404;2022-08-03T08:01:01;3.70;;;1.90;;
18879;SDS011;9572;52.378;13.404;2022-08-03T08:03:31;3.78;;;1.33;;
18879;SDS011;9572;52.378;13.404;2022-08-03T08:05:58;1.88;;;1.40;;
18879;SDS011;9572;52.378;13.404;2022-08-03T08:08:25;5.82;;;1.27;;
18879;SDS011;9572;52.378;13.404;2022-08-03T08:10:53;2.28;;;1.42;;
18879;SDS011;9572;52.378;13.404;2022-08-03T08:16:06;4.38;;;1.70;;
18879;SDS011;9572;52.378;13.404;2022-08-03T08:18:37;4.55;;;1.50;;
18879;SDS011;9572;52.378;13.404;2022-08-03T08:23:57;3.38;;;1.65;;
18879;SDS011;9572;52.378;13.404;2022-08-03T08:26:24;6.47;;;1.35;;
18879;SDS011;9572;52.378;13.404;2022-08-03T08:28:51;5.35;;;1.75;;
18879;SDS011;9572;52.378;13.404;2022-08-03T08:31:19;5.90;;;1.50;;
18879;SDS011;9572;52.378;13.404;2022-08-03T08:33:46;3.88;;;1.50;;
18879;SDS011;9572;52.378;13.404;2022-08-03T08:36:13;9.90;;;1.85;;
18879;SDS011;9572;52.378;13.404;2022-08-03T08:38:40;8.02;;;1.60;;
18879;SDS011;9572;52.378;13.404;2022-08-03T08:41:08;3.08;;;1.90;;
18879;SDS011;9572;52.378;13.404;2022-08-03T08:43:37;7.18;;;1.52;;
18879;SDS011;9572;52.378;13.404;2022-08-03T08:46:04;3.20;;;1.50;;
18879;SDS011;9572;52.378;13.404;2022-08-03T08:48:33;4.18;;;1.60;;
18879;SDS011;9572;52.378;13.404;2022-08-03T08:51:04;2.67;;;1.10;;
18879;SDS011;9572;52.378;13.404;2022-08-03T08:53:33;7.25;;;2.00;;
18879;SDS011;9572;52.378;13.404;2022-08-03T08:56:02;5.20;;;1.30;;
18879;SDS011;9572;52.378;13.404;2022-08-03T08:58:32;3.17;;;1.30;;
18879;SDS011;9572;52.378;13.404;2022-08-03T09:01:02;2.17;;;1.17;;
18879;SDS011;9572;52.378;13.404;2022-08-03T09:03:31;4.72;;;1.23;;
18879;SDS011;9572;52.378;13.404;2022-08-03T09:06:01;7.50;;;1.45;;
18879;SDS011;9572;52.378;13.404;2022-08-03T09:08:29;2.60;;;1.20;;
18879;SDS011;9572;52.378;13.404;2022-08-03T09:10:57;8.23;;;1.20;;
18879;SDS011;9572;52.378;13.404;2022-08-03T09:13:24;4.35;;;1.20;;
18879;SDS011;9572;52.378;13.404;2022-08-03T09:18:39;8.55;;;1.30;;
18879;SDS011;9572;52.378;13.404;2022-08-03T09:21:21;2.55;;;1.38;;
18879;SDS011;9572;52.378;13.404;2022-08-03T09:23:50;6.15;;;1.10;;
18879;SDS011;9572;52.378;13.404;2022-08-03T09:26:21;4.45;;;1.63;;
18879;SDS011;9572;52.378;13.404;2022-08-03T09:28:56;2.03;;;1.15;;
18879;SDS011;9572;52.378;13.404;2022-08-03T09:31:29;4.50;;;1.30;;
18879;SDS011;9572;52.378;13.404;2022-08-03T09:33:56;2.75;;;1.40;;
18879;SDS011;9572;52.378;13.404;2022-08-03T09:36:36;4.75;;;1.40;;
18879;SDS011;9572;52.378;13.404;2022-08-03T09:39:06;3.00;;;1.30;;
18879;SDS011;9572;52.378;13.404;2022-08-03T09:41:36;4.93;;;1.20;;
18879;SDS011;9572;52.378;13.404;2022-08-03T09:44:04;4.00;;;1.50;;
18879;SDS011;9572;52.378;13.404;2022-08-03T09:46:46;4.03;;;1.40;;
18879;SDS011;9572;52.378;13.404;2022-08-03T09:49:13;2.17;;;1.00;;
18879;SDS011;9572;52.378;13.404;2022-08-03T09:51:42;1.48;;;1.25;;
18879;SDS011;9572;52.378;13.404;2022-08-03T09:54:09;4.22;;;1.10;;
18879;SDS011;9572;52.378;13.404;2022-08-03T09:56:37;3.70;;;1.33;;
18879;SDS011;9572;52.378;13.404;2022-08-03T09:59:05;1.33;;;1.20;;
18879;SDS011;9572;52.378;13.404;2022-08-03T10:01:32;3.72;;;1.25;;
18879;SDS011;9572;52.378;13.404;2022-08-03T10:04:01;6.13;;;1.23;;
18879;SDS011;9572;52.378;13.404;2022-08-03T10:06:28;2.83;;;1.10;;
18879;SDS011;9572;52.378;13.404;2022-08-03T10:09:04;2.25;;;1.15;;
18879;SDS011;9572;52.378;13.404;2022-08-03T10:11:34;4.85;;;1.35;;
18879;SDS011;9572;52.378;13.404;2022-08-03T10:14:02;2.25;;;1.35;;
18879;SDS011;9572;52.378;13.404;2022-08-03T10:16:33;2.92;;;1.55;;
18879;SDS011;9572;52.378;13.404;2022-08-03T10:19:02;2.58;;;1.15;;
18879;SDS011;9572;52.378;13.404;2022-08-03T10:21:31;2.90;;;1.27;;
18879;SDS011;9572;52.378;13.404;2022-08-03T10:24:01;3.67;;;1.25;;
18879;SDS011;9572;52.378;13.404;2022-08-03T10:26:31;5.15;;;1.45;;
18879;SDS011;9572;52.378;13.404;2022-08-03T10:29:01;2.78;;;1.10;;
18879;SDS011;9572;52.378;13.404;2022-08-03T10:31:33;3.13;;;0.90;;
18879;SDS011;9572;52.378;13.404;2022-08-03T10:34:05;2.78;;;1.05;;
18879;SDS011;9572;52.378;13.404;2022-08-03T10:36:38;0.95;;;0.90;;
18879;SDS011;9572;52.378;13.404;2022-08-03T10:39:06;3.47;;;1.00;;
18879;SDS011;9572;52.378;13.404;2022-08-03T10:41:38;4.18;;;1.17;;
18879;SDS011;9572;52.378;13.404;2022-08-03T10:44:09;1.05;;;1.05;;
18879;SDS011;9572;52.378;13.404;2022-08-03T10:46:39;2.20;;;1.10;;
18879;SDS011;9572;52.378;13.404;2022-08-03T10:49:10;1.83;;;0.93;;
18879;SDS011;9572;52.378;13.404;2022-08-03T10:51:38;1.15;;;0.80;;
18879;SDS011;9572;52.378;13.404;2022-08-03T10:54:06;1.85;;;1.10;;
18879;SDS011;9572;52.378;13.404;2022-08-03T10:56:55;1.05;;;1.00;;
18879;SDS011;9572;52.378;13.404;2022-08-03T10:59:58;3.03;;;1.10;;
18879;SDS011;9572;52.378;13.404;2022-08-03T11:05:27;2.97;;;1.20;;
18879;SDS011;9572;52.378;13.404;2022-08-03T11:11:00;1.90;;;1.02;;
18879;SDS011;9572;52.378;13.404;2022-08-03T11:13:57;1.10;;;0.85;;
18879;SDS011;9572;52.378;13.404;2022-08-03T11:16:26;3.85;;;0.85;;
18879;SDS011;9572;52.378;13.404;2022-08-03T11:18:54;1.25;;;1.10;;
18879;SDS011;9572;52.378;13.404;2022-08-03T11:27:22;1.70;;;1.10;;
18879;SDS011;9572;52.378;13.404;2022-08-03T11:29:54;2.33;;;1.30;;
18879;SDS011;9572;52.378;13.404;2022-08-03T11:35:33;2.28;;;1.10;;
18879;SDS011;9572;52.378;13.404;2022-08-03T11:38:01;2.42;;;1.25;;
18879;SDS011;9572;52.378;13.404;2022-08-03T11:40:34;1.75;;;0.98;;
18879;SDS011;9572;52.378;13.404;2022-08-03T11:43:03;1.35;;;1.10;;
18879;SDS011;9572;52.378;13.404;2022-08-03T11:45:32;4.65;;;1.27;;
18879;SDS011;9572;52.378;13.404;2022-08-03T11:48:01;6.65;;;1.52;;
18879;SDS011;9572;52.378;13.404;2022-08-03T11:50:39;2.42;;;1.23;;
18879;SDS011;9572;52.378;13.404;2022-08-03T11:53:11;5.13;;;1.23;;
18879;SDS011;9572;52.378;13.404;2022-08-03T11:55:41;2.03;;;1.30;;
18879;SDS011;9572;52.378;13.404;2022-08-03T11:58:17;2.25;;;1.30;;
18879;SDS011;9572;52.378;13.404;2022-08-03T12:00:47;3.20;;;1.20;;
18879;SDS011;9572;52.378;13.404;2022-08-03T12:03:15;1.35;;;1.10;;
18879;SDS011;9572;52.378;13.404;2022-08-03T12:05:47;0.90;;;0.90;;
18879;SDS011;9572;52.378;13.404;2022-08-03T12:08:16;3.97;;;1.10;;
18879;SDS011;9572;52.378;13.404;2022-08-03T12:10:48;4.90;;;1.10;;
18879;SDS011;9572;52.378;13.404;2022-08-03T12:13:16;1.80;;;0.70;;
18879;SDS011;9572;52.378;13.404;2022-08-03T12:15:50;4.00;;;1.30;;
18879;SDS011;9572;52.378;13.404;2022-08-03T12:18:18;1.40;;;1.00;;
18879;SDS011;9572;52.378;13.404;2022-08-03T12:20:46;1.10;;;1.10;;
18879;SDS011;9572;52.378;13.404;2022-08-03T12:23:14;3.95;;;1.17;;
18879;SDS011;9572;52.378;13.404;2022-08-03T12:25:42;2.38;;;1.20;;
18879;SDS011;9572;52.378;13.404;2022-08-03T12:28:11;2.15;;;0.90;;
18879;SDS011;9572;52.378;13.404;2022-08-03T12:30:43;4.30;;;1.00;;
18879;SDS011;9572;52.378;13.404;2022-08-03T12:33:14;3.67;;;1.00;;
18879;SDS011;9572;52.378;13.404;2022-08-03T12:35:46;1.15;;;1.10;;
18879;SDS011;9572;52.378;13.404;2022-08-03T12:38:18;2.90;;;0.93;;
18879;SDS011;9572;52.378;13.404;2022-08-03T12:40:54;2.40;;;0.98;;
18879;SDS011;9572;52.378;13.404;2022-08-03T12:43:22;4.68;;;1.08;;
18879;SDS011;9572;52.378;13.404;2022-08-03T12:45:49;2.78;;;1.10;;
18879;SDS011;9572;52.378;13.404;2022-08-03T12:48:17;2.28;;;1.05;;
18879;SDS011;9572;52.378;13.404;2022-08-03T12:50:44;1.33;;;0.68;;
18879;SDS011;9572;52.378;13.404;2022-08-03T12:53:10;4.25;;;0.90;;
18879;SDS011;9572;52.378;13.404;2022-08-03T12:55:37;1.00;;;0.90;;
18879;SDS011;9572;52.378;13.404;2022-08-03T12:58:06;2.70;;;1.00;;
18879;SDS011;9572;52.378;13.404;2022-08-03T13:00:35;1.60;;;0.80;;
18879;SDS011;9572;52.378;13.404;2022-08-03T13:03:04;1.30;;;1.00;;
18879;SDS011;9572;52.378;13.404;2022-08-03T13:05:42;4.03;;;0.95;;
18879;SDS011;9572;52.378;13.404;2022-08-03T13:08:16;2.97;;;0.95;;
18879;SDS011;9572;52.378;13.404;2022-08-03T13:10:44;2.92;;;1.00;;
18879;SDS011;9572;52.378;13.404;2022-08-03T13:13:12;2.47;;;0.90;;
18879;SDS011;9572;52.378;13.404;2022-08-03T13:15:39;2.47;;;0.95;;
18879;SDS011;9572;52.378;13.404;2022-08-03T13:18:06;6.07;;;1.27;;
18879;SDS011;9572;52.378;13.404;2022-08-03T13:20:33;6.38;;;1.02;;
18879;SDS011;9572;52.378;13.404;2022-08-03T13:23:02;5.20;;;1.40;;
18879;SDS011;9572;52.378;13.404;2022-08-03T13:25:29;2.72;;;1.38;;
18879;SDS011;9572;52.378;13.404;2022-08-03T13:27:55;3.65;;;1.30;;
18879;SDS011;9572;52.378;13.404;2022-08-03T13:30:22;4.40;;;1.05;;
18879;SDS011;9572;52.378;13.404;2022-08-03T13:32:49;4.47;;;1.00;;
18879;SDS011;9572;52.378;13.404;2022-08-03T13:35:17;1.10;;;0.98;;
18879;SDS011;9572;52.378;13.404;2022-08-03T13:37:44;1.40;;;1.15;;
18879;SDS011;9572;52.378;13.404;2022-08-03T13:40:12;1.02;;;0.93;;
18879;SDS011;9572;52.378;13.404;2022-08-03T13:42:39;4.97;;;1.17;;
18879;SDS011;9572;52.378;13.404;2022-08-03T13:45:06;7.53;;;1.80;;
18879;SDS011;9572;52.378;13.404;2022-08-03T13:47:35;3.60;;;0.80;;
18879;SDS011;9572;52.378;13.404;2022-08-03T13:50:02;2.28;;;1.20;;
18879;SDS011;9572;52.378;13.404;2022-08-03T13:52:30;2.55;;;1.30;;
18879;SDS011;9572;52.378;13.404;2022-08-03T13:54:58;5.15;;;1.33;;
18879;SDS011;9572;52.378;13.404;2022-08-03T13:57:26;2.83;;;1.20;;
18879;SDS011;9572;52.378;13.404;2022-08-03T13:59:53;1.48;;;1.30;;
18879;SDS011;9572;52.378;13.404;2022-08-03T14:02:20;3.80;;;1.33;;
18879;SDS011;9572;52.378;13.404;2022-08-03T14:04:47;8.13;;;1.10;;
18879;SDS011;9572;52.378;13.404;2022-08-03T14:07:14;2.53;;;1.38;;
18879;SDS011;9572;52.378;13.404;2022-08-03T14:09:41;1.92;;;1.20;;
18879;SDS011;9572;52.378;13.404;2022-08-03T14:12:08;3.45;;;1.20;;
18879;SDS011;9572;52.378;13.404;2022-08-03T14:14:36;3.47;;;1.08;;
18879;SDS011;9572;52.378;13.404;2022-08-03T14:17:03;1.40;;;1.00;;
18879;SDS011;9572;52.378;13.404;2022-08-03T14:19:30;4.78;;;0.98;;
18879;SDS011;9572;52.378;13.404;2022-08-03T14:21:57;1.52;;;1.05;;
18879;SDS011;9572;52.378;13.404;2022-08-03T14:24:24;2.40;;;1.33;;
18879;SDS011;9572;52.378;13.404;2022-08-03T14:26:51;2.88;;;1.13;;
18879;SDS011;9572;52.378;13.404;2022-08-03T14:29:18;3.80;;;1.23;;
18879;SDS011;9572;52.378;13.404;2022-08-03T14:31:46;3.60;;;1.23;;
18879;SDS011;9572;52.378;13.404;2022-08-03T14:34:13;2.05;;;0.98;;
18879;SDS011;9572;52.378;13.404;2022-08-03T14:36:40;2.22;;;1.15;;
18879;SDS011;9572;52.378;13.404;2022-08-03T14:39:07;1.67;;;1.27;;
18879;SDS011;9572;52.378;13.404;2022-08-03T14:41:34;1.38;;;1.17;;
18879;SDS011;9572;52.378;13.404;2022-08-03T14:44:01;0.88;;;0.88;;
18879;SDS011;9572;52.378;13.404;2022-08-03T14:46:28;2.10;;;1.23;;
18879;SDS011;9572;52.378;13.404;2022-08-03T14:48:57;1.25;;;1.00;;
18879;SDS011;9572;52.378;13.404;2022-08-03T14:51:24;1.88;;;1.13;;
18879;SDS011;9572;52.378;13.404;2022-08-03T14:53:52;1.30;;;1.20;;
18879;SDS011;9572;52.378;13.404;2022-08-03T14:56:18;1.27;;;1.10;;
18879;SDS011;9572;52.378;13.404;2022-08-03T14:58:45;1.55;;;1.13;;
18879;SDS011;9572;52.378;13.404;2022-08-03T15:01:12;1.60;;;1.35;;
18879;SDS011;9572;52.378;13.404;2022-08-03T15:03:39;1.90;;;0.90;;
18879;SDS011;9572;52.378;13.404;2022-08-03T15:06:08;3.25;;;1.17;;
18879;SDS011;9572;52.378;13.404;2022-08-03T15:08:34;1.20;;;1.10;;
18879;SDS011;9572;52.378;13.404;2022-08-03T15:11:02;1.23;;;1.10;;
18879;SDS011;9572;52.378;13.404;2022-08-03T15:13:29;1.80;;;1.25;;
18879;SDS011;9572;52.378;13.404;2022-08-03T15:15:56;2.38;;;1.10;;
18879;SDS011;9572;52.378;13.404;2022-08-03T15:18:23;4.35;;;1.20;;
18879;SDS011;9572;52.378;13.404;2022-08-03T15:20:49;2.58;;;1.63;;
18879;SDS011;9572;52.378;13.404;2022-08-03T15:23:18;2.67;;;1.02;;
18879;SDS011;9572;52.378;13.404;2022-08-03T15:25:45;3.08;;;1.65;;
18879;SDS011;9572;52.378;13.404;2022-08-03T15:28:12;2.55;;;1.10;;
18879;SDS011;9572;52.378;13.404;2022-08-03T15:30:39;2.65;;;1.48;;
18879;SDS011;9572;52.378;13.404;2022-08-03T15:33:06;3.85;;;1.27;;
18879;SDS011;9572;52.378;13.404;2022-08-03T15:35:33;4.38;;;2.00;;
18879;SDS011;9572;52.378;13.404;2022-08-03T15:38:00;3.55;;;1.20;;
18879;SDS011;9572;52.378;13.404;2022-08-03T15:40:28;2.45;;;1.27;;
18879;SDS011;9572;52.378;13.404;2022-08-03T15:42:55;7.00;;;1.52;;